Ilam Airport
OICI : now visible

Airfield :











YOU CAN JOIN US ON...

 
LOGIN :

Register | Disclaimer

   EN    FR    IT 

 









Legend :    VFR   Marginal VFR   IFR   Intensive IFR   Very Intensive IFR
Visi :
Ceiling :
>= 8 km
>= 3000ft
5 to 8 km
1000 to 3000 ft
1500m to 5 km
500 to 1000 ft
800 to 1500m
200 to 500 ft
< 800m
< 200 ft
Symbols :   Thunderstorms  Fog  Heavy snow  Heavy precipitations  Wind > 20 kt






- Airport Elevation : 4404 ft
- IATA code : IIL


OICI - Ilam

CURRENT METAR :
  • 011200Z 25008KT 9999 FEW045 SCT200 34/02 Q1017 A3004

EXPIRED METARs :
  • 011100Z 25004KT 9999 FEW045 SCT100 34/02 Q1017 A3004
  • 011030Z 26010KT 9999 FEW045 SCT100 34/02 Q1017 A3005

TAF TAF OICI
Valid from the 01 at 12:00 until the 02 at 18:00 UTC


011100Z 0112/0218 14006KT 7000 FEW040 SCT100
TEMPO 0112/0121 26010G20KT FEW035CB SCT040 BKN100
BECMG 0202/0204 14012KT FEW035CB SCT040 BKN100
TEMPO 0209/0218 20025G35KT 3000 SA TS/SHRA SCT030CB OVC090
OIIX FIR / Asia



MET'MAP, your aeronautical weather chart ! - Copyright ORBIFLY December 2007 - Disclaimer

ORBIFLY MET'MAP TEAM :

Programming & Development : Alexandra Zaïnal
Concept & original design : Baudouin d'Aumeries
Assistance for programming : Marc-Olivier Méhu
Technical & hardware support : Manuel Goepfert

Contact : metmap@orbifly.com




SOURCES & CREDITS :

   NOAA       Earth
Advisory